createdAt,value
2022-08-05T00:00:19.996Z,42.50
2022-08-05T00:01:21.005Z,38.30
2022-08-05T00:02:20.077Z,38.04
2022-08-05T00:03:18.988Z,40.75
2022-08-05T00:04:19.025Z,44.94
2022-08-05T00:06:01.505Z,41.52
2022-08-05T00:06:27.786Z,43.26
2022-08-05T00:07:26.978Z,46.61
2022-08-05T00:08:34.987Z,40.20
2022-08-05T00:09:20.253Z,39.35
2022-08-05T00:10:18.935Z,41.39
2022-08-05T00:11:28.107Z,43.93
2022-08-05T00:12:19.923Z,43.60
2022-08-05T00:13:19.880Z,49.06
2022-08-05T00:14:18.903Z,44.08
2022-08-05T00:15:55.457Z,43.06
2022-08-05T00:16:19.887Z,47.03
2022-08-05T00:17:28.560Z,41.39
2022-08-05T00:18:22.530Z,46.73
2022-08-05T00:19:18.867Z,46.33
2022-08-05T00:20:20.419Z,41.63
2022-08-05T00:21:18.855Z,42.69
2022-08-05T00:22:18.867Z,45.61
2022-08-05T00:23:44.325Z,43.38
2022-08-05T00:24:24.686Z,39.88
2022-08-05T00:25:19.831Z,42.74
2022-08-05T00:26:18.822Z,40.86
2022-08-05T00:27:18.827Z,42.77
2022-08-05T00:28:29.432Z,44.05
2022-08-05T00:29:22.809Z,42.43
2022-08-05T00:30:19.794Z,45.76
2022-08-05T00:31:53.609Z,50.63
2022-08-05T00:32:19.794Z,45.31
2022-08-05T00:34:54.545Z,46.29
2022-08-05T00:34:55.129Z,46.34
2022-08-05T00:35:20.408Z,45.47
2022-08-05T00:37:10.805Z,46.46
2022-08-05T00:37:20.220Z,46.84
2022-08-05T00:38:18.742Z,46.46
2022-08-05T00:39:19.781Z,48.56
2022-08-05T00:40:27.018Z,44.97
2022-08-05T00:41:19.717Z,42.48
2022-08-05T00:42:31.846Z,42.53
2022-08-05T00:43:19.706Z,44.51
2022-08-05T00:44:18.698Z,43.45
2022-08-05T00:45:27.889Z,41.67
2022-08-05T00:46:19.686Z,41.58
2022-08-05T00:47:19.702Z,45.24
2022-08-05T00:48:18.674Z,42.07
2022-08-05T00:49:19.666Z,43.04
2022-08-05T00:50:18.663Z,42.51
2022-08-05T00:51:51.589Z,38.80
2022-08-05T00:52:23.926Z,40.26
2022-08-05T00:54:00.225Z,49.78
2022-08-05T00:54:19.627Z,52.30
2022-08-05T00:55:19.007Z,51.49
2022-08-05T00:56:22.755Z,58.15
2022-08-05T00:57:21.234Z,61.65
2022-08-05T00:58:19.182Z,61.38
2022-08-05T00:59:18.613Z,54.61
2022-08-05T01:00:19.995Z,51.26
2022-08-05T01:01:42.125Z,47.77
2022-08-05T01:02:19.577Z,44.43
2022-08-05T01:03:22.602Z,47.48
2022-08-05T01:04:20.112Z,47.59
2022-08-05T01:05:19.576Z,41.79
2022-08-05T01:06:18.547Z,48.09
2022-08-05T01:07:18.545Z,47.24
2022-08-05T01:08:40.847Z,39.69
2022-08-05T01:09:20.212Z,47.19
2022-08-05T01:10:18.540Z,48.02
2022-08-05T01:11:22.354Z,43.35
2022-08-05T01:12:19.517Z,40.69
2022-08-05T01:13:19.398Z,42.92
2022-08-05T01:14:18.527Z,45.38
2022-08-05T01:15:35.630Z,40.90
2022-08-05T01:16:21.048Z,42.89
2022-08-05T01:17:19.466Z,48.31
2022-08-05T01:18:19.470Z,46.61
2022-08-05T01:19:18.487Z,43.80
2022-08-05T01:20:18.477Z,46.56
2022-08-05T01:21:22.865Z,41.95
2022-08-05T01:22:23.921Z,38.92
2022-08-05T01:23:22.939Z,39.13
2022-08-05T01:24:18.432Z,47.50
2022-08-05T01:25:18.456Z,43.66
2022-08-05T01:26:18.424Z,47.08
2022-08-05T01:27:24.334Z,48.66
2022-08-05T01:28:19.402Z,42.19
2022-08-05T01:29:18.405Z,39.43
2022-08-05T01:30:19.011Z,41.85
2022-08-05T01:31:19.387Z,47.04
2022-08-05T01:32:18.841Z,43.81
2022-08-05T01:33:19.613Z,50.13
2022-08-05T01:34:18.372Z,47.52
2022-08-05T01:35:52.107Z,46.71
2022-08-05T01:36:21.064Z,45.23
2022-08-05T01:37:24.707Z,48.71
2022-08-05T01:38:24.645Z,46.83
2022-08-05T01:39:45.712Z,43.33
2022-08-05T01:40:19.322Z,50.22
2022-08-05T01:41:21.629Z,45.48
2022-08-05T01:42:18.314Z,45.00
2022-08-05T01:43:21.970Z,51.18
2022-08-05T01:44:18.322Z,49.97
2022-08-05T01:45:18.282Z,47.51
2022-08-05T01:46:42.417Z,49.13
2022-08-05T01:47:19.278Z,50.71
2022-08-05T01:48:18.278Z,46.09
2022-08-05T01:49:22.803Z,44.94
2022-08-05T01:50:19.250Z,52.39
2022-08-05T01:51:19.242Z,54.23
2022-08-05T01:52:19.053Z,52.31
2022-08-05T01:53:55.201Z,54.37
2022-08-05T01:54:19.223Z,54.49
2022-08-05T01:55:18.218Z,54.39
2022-08-05T01:58:10.132Z,52.60
2022-08-05T01:58:11.776Z,52.54
2022-08-05T01:58:40.370Z,56.33
2022-08-05T01:59:19.202Z,57.82
2022-08-05T02:00:18.198Z,56.05
2022-08-05T02:01:24.619Z,51.97
2022-08-05T02:02:19.235Z,52.82
2022-08-05T02:03:31.260Z,51.03
2022-08-05T02:04:19.179Z,47.95
2022-08-05T02:05:18.157Z,49.66
2022-08-05T02:06:33.328Z,51.04
2022-08-05T02:07:22.209Z,50.13
2022-08-05T02:08:20.476Z,52.84
2022-08-05T02:09:20.578Z,57.55
2022-08-05T02:10:18.125Z,54.13
2022-08-05T02:11:23.942Z,54.07
2022-08-05T02:12:19.108Z,54.36
2022-08-05T02:13:18.104Z,58.93
2022-08-05T02:14:18.081Z,57.96
2022-08-05T02:15:19.763Z,53.75
2022-08-05T02:16:18.079Z,51.96
2022-08-05T02:18:27.548Z,47.72
2022-08-05T02:18:32.235Z,49.08
2022-08-05T02:19:19.076Z,50.38
2022-08-05T02:20:20.579Z,51.27
2022-08-05T02:21:18.048Z,50.57
2022-08-05T02:22:25.696Z,52.17
2022-08-05T02:23:19.031Z,51.96
2022-08-05T02:24:18.106Z,55.36
2022-08-05T02:25:18.020Z,51.69
2022-08-05T02:26:18.016Z,54.10
2022-08-05T02:27:18.003Z,54.55
2022-08-05T02:28:28.395Z,52.80
2022-08-05T02:29:21.637Z,52.32
2022-08-05T02:30:18.986Z,52.41
2022-08-05T02:31:21.074Z,50.36
2022-08-05T02:32:19.861Z,54.15
2022-08-05T02:33:24.459Z,50.51
2022-08-05T02:34:18.959Z,51.89
2022-08-05T02:35:18.973Z,51.72
2022-08-05T02:36:18.948Z,49.55
2022-08-05T02:37:17.949Z,52.48
2022-08-05T02:38:19.415Z,51.82
2022-08-05T02:39:17.968Z,48.58
2022-08-05T02:40:17.916Z,50.88
2022-08-05T02:41:18.038Z,49.54
2022-08-05T02:42:25.646Z,49.83
2022-08-05T02:43:17.892Z,53.26
2022-08-05T02:44:17.876Z,51.60
2022-08-05T02:45:17.880Z,49.51
2022-08-05T02:46:17.873Z,50.42
2022-08-05T02:47:17.867Z,47.14
2022-08-05T02:48:17.860Z,45.87
2022-08-05T02:49:17.857Z,47.86
2022-08-05T02:50:18.063Z,48.50
2022-08-05T02:51:17.832Z,47.82
2022-08-05T02:52:30.051Z,46.28
2022-08-05T02:53:19.616Z,47.42
2022-08-05T02:54:34.876Z,50.43
2022-08-05T02:55:53.875Z,48.55
2022-08-05T02:56:19.090Z,47.72
2022-08-05T02:58:11.119Z,45.37
2022-08-05T02:58:20.326Z,48.34
2022-08-05T02:59:17.779Z,46.95
2022-08-05T03:00:17.781Z,49.90
2022-08-05T03:01:19.538Z,49.26
2022-08-05T03:02:17.755Z,47.26
2022-08-05T03:03:17.764Z,49.30
2022-08-05T03:04:17.754Z,49.53
2022-08-05T03:05:21.919Z,49.77
2022-08-05T03:06:56.474Z,49.00
2022-08-05T03:07:40.677Z,49.76
2022-08-05T03:08:19.540Z,47.56
2022-08-05T03:09:27.170Z,50.69
2022-08-05T03:10:24.386Z,48.95
2022-08-05T03:11:54.612Z,51.74
2022-08-05T03:12:18.718Z,53.11
2022-08-05T03:13:17.687Z,51.16
2022-08-05T03:14:17.713Z,51.49
2022-08-05T03:15:17.689Z,50.68
2022-08-05T03:16:17.699Z,52.60
2022-08-05T03:17:17.674Z,50.51
2022-08-05T03:18:17.658Z,53.79
2022-08-05T03:19:34.020Z,52.64
2022-08-05T03:20:18.674Z,53.19
2022-08-05T03:21:17.661Z,53.07
2022-08-05T03:22:18.864Z,53.20
2022-08-05T03:23:18.669Z,52.24
2022-08-05T03:24:29.428Z,53.52
2022-08-05T03:25:32.684Z,52.60
2022-08-05T03:26:30.937Z,53.06
2022-08-05T03:27:18.606Z,52.88
2022-08-05T03:28:18.407Z,52.63
2022-08-05T03:29:17.590Z,53.10
2022-08-05T03:30:17.607Z,54.10
2022-08-05T03:31:18.311Z,53.06
2022-08-05T03:32:18.580Z,51.45
2022-08-05T03:33:17.570Z,51.79
2022-08-05T03:34:17.563Z,51.97
2022-08-05T03:35:17.558Z,53.19
2022-08-05T03:36:17.562Z,53.61
2022-08-05T03:37:18.536Z,52.68
2022-08-05T03:38:17.535Z,52.71
2022-08-05T03:39:26.698Z,51.41
2022-08-05T03:40:31.340Z,52.51
2022-08-05T03:41:18.527Z,53.62
2022-08-05T03:42:18.498Z,52.68
2022-08-05T03:44:08.996Z,54.47
2022-08-05T03:44:19.863Z,54.43
2022-08-05T03:45:21.778Z,53.40
2022-08-05T03:46:18.549Z,54.08
2022-08-05T03:47:17.484Z,54.10
2022-08-05T03:48:19.197Z,54.11
2022-08-05T03:49:18.466Z,53.97
2022-08-05T03:50:17.463Z,53.29
2022-08-05T03:52:37.483Z,54.10
2022-08-05T03:52:38.147Z,54.98
2022-08-05T03:55:06.835Z,54.47
2022-08-05T03:55:53.701Z,53.42
2022-08-05T03:56:05.845Z,53.58
2022-08-05T03:56:30.718Z,54.37
2022-08-05T03:57:18.412Z,53.76
2022-08-05T03:58:17.414Z,53.33
2022-08-05T03:59:20.374Z,53.46
2022-08-05T04:00:17.396Z,52.11
2022-08-05T04:01:17.479Z,54.50
2022-08-05T04:02:37.755Z,53.00
2022-08-05T04:03:28.509Z,54.05
2022-08-05T04:04:21.271Z,53.60
2022-08-05T04:05:17.393Z,53.14
2022-08-05T04:06:17.384Z,50.35
2022-08-05T04:07:17.340Z,53.45
2022-08-05T04:08:30.199Z,53.65
2022-08-05T04:09:20.389Z,52.90
2022-08-05T04:10:18.321Z,54.57
2022-08-05T04:11:17.332Z,54.22
2022-08-05T04:12:23.538Z,53.69
2022-08-05T04:13:18.309Z,55.47
2022-08-05T04:14:18.139Z,55.51
2022-08-05T04:15:17.289Z,54.06
2022-08-05T04:16:25.102Z,54.95
2022-08-05T04:17:18.276Z,57.33
2022-08-05T04:18:22.539Z,55.65
2022-08-05T04:19:19.266Z,56.33
2022-08-05T04:20:17.253Z,54.69
2022-08-05T04:21:19.917Z,56.28
2022-08-05T04:22:20.459Z,57.76
2022-08-05T04:23:17.232Z,55.20
2022-08-05T04:24:19.634Z,55.83
2022-08-05T04:25:17.213Z,57.26
2022-08-05T04:26:17.396Z,58.41
2022-08-05T04:27:17.224Z,60.07
2022-08-05T04:28:17.430Z,59.12
2022-08-05T04:29:17.208Z,60.36
2022-08-05T04:30:17.200Z,59.36
2022-08-05T04:31:17.181Z,59.78
2022-08-05T04:32:20.118Z,60.25
2022-08-05T04:33:20.577Z,61.13
2022-08-05T04:34:32.647Z,62.41
2022-08-05T04:35:19.653Z,60.91
2022-08-05T04:36:49.770Z,60.65
2022-08-05T04:37:18.144Z,60.53
2022-08-05T04:38:17.140Z,61.95
2022-08-05T04:39:17.222Z,59.64
2022-08-05T04:40:19.577Z,60.19
2022-08-05T04:41:17.125Z,58.98
2022-08-05T04:42:17.112Z,61.18
2022-08-05T04:43:17.116Z,60.39
2022-08-05T04:44:21.193Z,61.13
2022-08-05T04:45:22.949Z,59.36
2022-08-05T04:46:28.188Z,58.12
2022-08-05T04:47:18.751Z,58.10
2022-08-05T04:48:26.971Z,59.12
2022-08-05T04:49:17.061Z,58.30
2022-08-05T04:50:34.310Z,59.16
2022-08-05T04:51:18.064Z,58.44
2022-08-05T04:52:17.050Z,58.85
2022-08-05T04:53:17.042Z,60.16
2022-08-05T04:54:17.031Z,58.81
2022-08-05T04:55:17.071Z,57.47
2022-08-05T04:56:35.191Z,57.70
2022-08-05T04:57:18.005Z,58.14
2022-08-05T04:58:17.008Z,58.49
2022-08-05T04:59:21.654Z,55.43
2022-08-05T05:00:18.111Z,57.90
2022-08-05T05:01:33.641Z,57.45
2022-08-05T05:02:41.379Z,58.33
2022-08-05T05:03:18.776Z,57.45
2022-08-05T05:04:16.972Z,57.35
2022-08-05T05:05:28.301Z,56.50
2022-08-05T05:06:39.153Z,55.95
2022-08-05T05:07:17.959Z,55.56
2022-08-05T05:08:30.144Z,55.36
2022-08-05T05:09:18.351Z,55.86
2022-08-05T05:10:16.940Z,54.89
2022-08-05T05:11:16.922Z,56.34
2022-08-05T05:12:16.912Z,56.90
2022-08-05T05:13:16.896Z,57.57
2022-08-05T05:14:16.912Z,55.77
2022-08-05T05:15:57.059Z,54.34
2022-08-05T05:16:19.760Z,56.02
2022-08-05T05:17:22.905Z,55.37
2022-08-05T05:18:28.370Z,55.07
2022-08-05T05:19:19.322Z,54.73
2022-08-05T05:20:18.872Z,56.63
2022-08-05T05:21:16.848Z,55.38
2022-08-05T05:22:24.496Z,55.61
2022-08-05T05:23:19.971Z,54.45
2022-08-05T05:24:17.721Z,54.82
2022-08-05T05:25:17.822Z,56.13
2022-08-05T05:26:16.881Z,56.98
2022-08-05T05:27:17.340Z,56.70
2022-08-05T05:28:17.797Z,57.17
2022-08-05T05:29:16.792Z,56.24
2022-08-05T05:30:31.087Z,57.99
2022-08-05T05:31:18.447Z,58.40
2022-08-05T05:32:16.769Z,57.49
2022-08-05T05:33:17.334Z,57.06
2022-08-05T05:34:21.187Z,56.04
2022-08-05T05:35:19.771Z,58.08
2022-08-05T05:36:16.761Z,57.07
2022-08-05T05:37:16.759Z,56.87
2022-08-05T05:38:22.806Z,57.50
2022-08-05T05:39:19.091Z,57.08
2022-08-05T05:40:16.712Z,57.72
2022-08-05T05:41:16.704Z,59.32
2022-08-05T05:42:16.709Z,56.89
2022-08-05T05:43:16.699Z,56.40
2022-08-05T05:44:36.755Z,57.15
2022-08-05T05:45:17.673Z,55.51
2022-08-05T05:46:18.088Z,55.76
2022-08-05T05:47:21.769Z,56.36
2022-08-05T05:48:17.687Z,55.16
2022-08-05T05:49:22.503Z,54.44
2022-08-05T05:50:19.560Z,54.77
2022-08-05T05:51:16.643Z,55.09
2022-08-05T05:52:25.437Z,55.37
2022-08-05T05:53:21.538Z,54.68
2022-08-05T05:54:17.643Z,54.70
2022-08-05T05:55:16.632Z,55.99
2022-08-05T05:56:16.613Z,53.23
2022-08-05T05:57:19.092Z,54.20
2022-08-05T05:58:16.595Z,54.07
2022-08-05T05:59:16.599Z,53.46
2022-08-05T06:00:16.586Z,53.42
2022-08-05T06:01:16.571Z,54.39
2022-08-05T06:02:16.566Z,53.45
2022-08-05T06:03:40.719Z,56.02
2022-08-05T06:04:17.607Z,53.78
2022-08-05T06:05:17.198Z,53.08
2022-08-05T06:06:16.544Z,54.33
2022-08-05T06:07:16.638Z,53.52
2022-08-05T06:08:32.778Z,52.97
2022-08-05T06:09:24.874Z,53.26
2022-08-05T06:10:17.504Z,53.72
2022-08-05T06:11:16.509Z,53.32
2022-08-05T06:12:16.495Z,55.45
2022-08-05T06:13:16.484Z,51.89
2022-08-05T06:14:16.492Z,51.61
2022-08-05T06:15:24.168Z,53.09
2022-08-05T06:16:30.015Z,53.47
2022-08-05T06:17:22.253Z,53.11
2022-08-05T06:18:17.457Z,53.38
2022-08-05T06:19:34.009Z,53.50
2022-08-05T06:20:21.291Z,52.36
2022-08-05T06:21:16.629Z,55.45
2022-08-05T06:22:16.435Z,55.12
2022-08-05T06:23:16.427Z,55.02
2022-08-05T06:24:16.428Z,53.24
2022-08-05T06:25:59.695Z,52.87
2022-08-05T06:26:21.626Z,54.09
2022-08-05T06:28:09.347Z,52.69
2022-08-05T06:28:21.405Z,52.96
2022-08-05T06:29:42.878Z,52.24
2022-08-05T06:30:20.243Z,50.98
2022-08-05T06:31:18.314Z,53.20
2022-08-05T06:32:26.281Z,54.56
2022-08-05T06:33:19.180Z,57.10
2022-08-05T06:34:16.348Z,55.33
2022-08-05T06:36:04.002Z,55.27
2022-08-05T06:36:17.339Z,54.02
2022-08-05T06:37:16.419Z,53.54
2022-08-05T06:38:17.315Z,54.25
2022-08-05T06:39:17.391Z,55.51
2022-08-05T06:40:18.460Z,55.08
2022-08-05T06:41:17.299Z,55.35
2022-08-05T06:42:16.292Z,53.71
2022-08-05T06:43:57.555Z,54.59
2022-08-05T06:44:17.272Z,52.38
2022-08-05T06:45:20.849Z,52.99
2022-08-05T06:46:17.279Z,51.03
2022-08-05T06:48:11.758Z,52.79
2022-08-05T06:48:53.733Z,53.14
2022-08-05T06:49:17.244Z,51.80
2022-08-05T06:50:17.280Z,53.38
2022-08-05T06:51:23.903Z,53.22
2022-08-05T06:52:36.681Z,54.28
2022-08-05T06:53:22.670Z,55.14
2022-08-05T06:54:19.025Z,54.56
2022-08-05T06:55:16.212Z,53.48
2022-08-05T06:56:26.122Z,52.97
2022-08-05T06:58:02.863Z,52.24
2022-08-05T06:58:30.004Z,50.30
2022-08-05T06:59:17.175Z,50.02
2022-08-05T07:00:22.431Z,51.42
2022-08-05T07:01:20.998Z,49.04
2022-08-05T07:02:16.160Z,51.64
2022-08-05T07:03:17.151Z,52.51
2022-08-05T07:04:16.144Z,54.07
2022-08-05T07:05:18.946Z,52.65
2022-08-05T07:06:16.139Z,52.85
2022-08-05T07:07:16.180Z,54.87
2022-08-05T07:08:17.115Z,53.02
2022-08-05T07:09:16.116Z,53.68
2022-08-05T07:10:16.396Z,53.36
2022-08-05T07:11:16.124Z,52.05
2022-08-05T07:12:16.115Z,50.59
2022-08-05T07:13:16.091Z,50.28
2022-08-05T07:14:20.453Z,51.01
2022-08-05T07:15:34.094Z,51.56
2022-08-05T07:17:57.357Z,52.85
2022-08-05T07:18:00.459Z,52.08
2022-08-05T07:18:29.151Z,51.30
2022-08-05T07:19:44.286Z,53.40
2022-08-05T07:20:32.959Z,54.09
2022-08-05T07:21:18.023Z,52.48
2022-08-05T07:22:18.033Z,55.19
2022-08-05T07:23:26.458Z,53.51
2022-08-05T07:24:17.043Z,51.61
2022-08-05T07:25:53.930Z,53.52
2022-08-05T07:26:22.604Z,51.58
2022-08-05T07:27:18.016Z,50.44
2022-08-05T07:28:17.177Z,51.22
2022-08-05T07:29:15.975Z,54.57
2022-08-05T07:30:22.053Z,53.42
2022-08-05T07:31:17.967Z,51.44
2022-08-05T07:32:17.047Z,55.31
2022-08-05T07:33:17.372Z,53.49
2022-08-05T07:34:15.960Z,50.45
2022-08-05T07:36:01.875Z,52.33
2022-08-05T07:36:20.642Z,54.14
2022-08-05T07:37:15.964Z,53.50
2022-08-05T07:38:32.091Z,54.11
2022-08-05T07:39:24.686Z,53.66
2022-08-05T07:40:31.450Z,53.32
2022-08-05T07:42:08.166Z,54.21
2022-08-05T07:42:16.963Z,55.91
2022-08-05T07:43:20.823Z,54.75
2022-08-05T07:44:19.070Z,54.91
2022-08-05T07:45:16.871Z,57.92
2022-08-05T07:46:24.657Z,56.02
2022-08-05T07:47:16.866Z,55.56
2022-08-05T07:48:15.847Z,55.83
2022-08-05T07:49:18.210Z,50.73
2022-08-05T07:50:16.682Z,53.61
2022-08-05T07:51:23.409Z,53.85
2022-08-05T07:52:16.820Z,57.01
2022-08-05T07:53:15.807Z,54.57
2022-08-05T07:54:15.916Z,52.99
2022-08-05T07:56:04.867Z,53.12
2022-08-05T07:56:39.325Z,55.46
2022-08-05T07:57:41.897Z,53.46
2022-08-05T07:58:54.768Z,54.87
2022-08-05T07:59:16.802Z,53.12
2022-08-05T08:00:15.762Z,51.36
2022-08-05T08:01:15.805Z,53.42
2022-08-05T08:02:17.632Z,54.43
2022-08-05T08:03:16.084Z,52.79
2022-08-05T08:04:16.772Z,53.32
2022-08-05T08:05:16.744Z,53.69
2022-08-05T08:06:15.727Z,55.49
2022-08-05T08:07:15.748Z,54.34
2022-08-05T08:08:15.711Z,55.19
2022-08-05T08:09:15.720Z,54.28
2022-08-05T08:10:15.704Z,54.02
2022-08-05T08:11:15.982Z,53.43
2022-08-05T08:12:33.410Z,55.92
2022-08-05T08:13:22.020Z,54.81
2022-08-05T08:14:18.265Z,53.51
2022-08-05T08:15:16.213Z,54.35
2022-08-05T08:16:35.277Z,54.15
2022-08-05T08:17:16.664Z,55.31
2022-08-05T08:18:15.649Z,54.23
2022-08-05T08:20:10.881Z,54.90
2022-08-05T08:20:43.455Z,55.22
2022-08-05T08:21:17.732Z,56.05
2022-08-05T08:22:15.892Z,54.11
2022-08-05T08:24:03.225Z,56.49
2022-08-05T08:24:16.755Z,55.26
2022-08-05T08:25:17.804Z,56.13
2022-08-05T08:26:16.599Z,55.18
2022-08-05T08:27:16.743Z,54.84
2022-08-05T08:28:18.949Z,54.46
2022-08-05T08:29:45.483Z,55.42
2022-08-05T08:30:27.663Z,55.56
2022-08-05T08:31:17.517Z,56.68
2022-08-05T08:32:15.605Z,56.93
2022-08-05T08:33:16.557Z,55.86
2022-08-05T08:34:15.549Z,57.39
2022-08-05T08:35:15.551Z,56.69
2022-08-05T08:36:50.554Z,55.72
2022-08-05T08:37:18.887Z,53.75
2022-08-05T08:38:16.460Z,55.23
2022-08-05T08:39:16.518Z,54.16
2022-08-05T08:40:15.578Z,55.98
2022-08-05T08:41:15.512Z,55.77
2022-08-05T08:42:32.589Z,57.21
2022-08-05T08:45:04.465Z,55.72
2022-08-05T08:45:24.013Z,56.64
2022-08-05T08:45:26.273Z,54.76
2022-08-05T08:46:16.480Z,54.82
2022-08-05T08:47:21.870Z,55.91
2022-08-05T08:48:41.581Z,55.40
2022-08-05T08:50:12.925Z,57.98
2022-08-05T08:50:30.512Z,57.01
2022-08-05T08:52:03.097Z,56.44
2022-08-05T08:52:16.445Z,52.71
2022-08-05T08:53:15.422Z,54.63
2022-08-05T08:54:15.420Z,53.33
2022-08-05T08:55:19.570Z,54.13
2022-08-05T08:56:16.403Z,53.97
2022-08-05T08:57:15.402Z,56.67
2022-08-05T08:58:15.407Z,54.83
2022-08-05T08:59:19.688Z,54.42
2022-08-05T09:00:16.387Z,54.21
2022-08-05T09:01:16.224Z,54.13
2022-08-05T09:02:16.575Z,55.99
2022-08-05T09:03:16.187Z,55.78
2022-08-05T09:04:15.370Z,55.64
2022-08-05T09:05:17.420Z,54.54
2022-08-05T09:06:20.026Z,53.75
2022-08-05T09:07:19.562Z,53.77
2022-08-05T09:08:16.330Z,54.23
2022-08-05T09:09:15.343Z,55.46
2022-08-05T09:10:15.315Z,56.18
2022-08-05T09:11:15.333Z,55.84
2022-08-05T09:12:19.967Z,55.81
2022-08-05T09:13:17.297Z,56.86
2022-08-05T09:14:58.425Z,56.17
2022-08-05T09:15:16.317Z,57.77
2022-08-05T09:16:16.931Z,57.49
2022-08-05T09:17:42.283Z,58.13
2022-08-05T09:18:16.254Z,56.61
2022-08-05T09:19:15.257Z,57.05
2022-08-05T09:20:36.435Z,56.98
2022-08-05T09:22:13.522Z,58.12
2022-08-05T09:22:23.041Z,57.29
2022-08-05T09:23:19.636Z,55.62
2022-08-05T09:24:15.317Z,58.35
2022-08-05T09:25:23.842Z,56.70
2022-08-05T09:26:15.898Z,57.97
2022-08-05T09:27:18.762Z,56.23
2022-08-05T09:28:16.203Z,56.18
2022-08-05T09:29:18.831Z,56.88
2022-08-05T09:30:16.527Z,56.18
2022-08-05T09:31:43.646Z,58.12
2022-08-05T09:32:46.311Z,58.51
2022-08-05T09:33:17.117Z,57.83
2022-08-05T09:34:15.154Z,56.55
2022-08-05T09:35:26.533Z,57.22
2022-08-05T09:36:16.416Z,57.58
2022-08-05T09:37:16.847Z,56.56
2022-08-05T09:38:18.703Z,56.82
2022-08-05T09:39:18.284Z,55.96
2022-08-05T09:40:16.223Z,56.59
2022-08-05T09:41:16.204Z,56.40
2022-08-05T09:42:17.339Z,56.29
2022-08-05T09:43:16.110Z,56.53
2022-08-05T09:44:15.095Z,58.52
2022-08-05T09:46:04.994Z,55.45
2022-08-05T09:46:16.099Z,56.18
2022-08-05T09:47:15.541Z,57.90
2022-08-05T09:48:15.074Z,56.77
2022-08-05T09:49:19.483Z,56.80
2022-08-05T09:50:17.789Z,55.43
2022-08-05T09:51:16.046Z,55.67
2022-08-05T09:52:15.163Z,55.27
2022-08-05T09:53:22.758Z,54.25
2022-08-05T09:54:16.038Z,55.80
2022-08-05T09:55:57.215Z,54.69
2022-08-05T09:56:16.036Z,56.16
2022-08-05T09:57:20.643Z,55.10
2022-08-05T09:58:16.089Z,55.99
2022-08-05T09:59:17.258Z,56.65
2022-08-05T10:00:15.085Z,57.48
2022-08-05T10:01:31.561Z,56.69
2022-08-05T10:02:16.063Z,57.65
2022-08-05T10:03:14.990Z,57.07
2022-08-05T10:04:16.133Z,57.10
2022-08-05T10:05:14.957Z,55.85
2022-08-05T10:06:15.997Z,54.91
2022-08-05T10:07:20.755Z,55.58
2022-08-05T10:08:37.326Z,56.88
2022-08-05T10:09:25.328Z,55.03
2022-08-05T10:10:15.916Z,57.16
2022-08-05T10:11:14.922Z,59.04
2022-08-05T10:12:18.573Z,58.48
2022-08-05T10:13:15.910Z,57.55
2022-08-05T10:14:14.914Z,58.75
2022-08-05T10:15:17.051Z,56.76
2022-08-05T10:16:14.893Z,56.94
2022-08-05T10:17:37.408Z,55.38
2022-08-05T10:18:16.840Z,54.78
2022-08-05T10:19:14.886Z,56.54
2022-08-05T10:20:14.866Z,57.90
2022-08-05T10:21:15.773Z,57.41
2022-08-05T10:22:15.816Z,57.00
2022-08-05T10:23:34.007Z,56.38
2022-08-05T10:24:15.854Z,56.21
2022-08-05T10:25:14.838Z,54.76
2022-08-05T10:26:15.830Z,56.59
2022-08-05T10:27:14.870Z,56.38
2022-08-05T10:28:19.489Z,58.56
2022-08-05T10:29:23.331Z,56.00
2022-08-05T10:32:47.909Z,57.98
2022-08-05T10:32:52.798Z,57.37
2022-08-05T10:32:53.220Z,56.77
2022-08-05T10:33:15.856Z,61.03
2022-08-05T10:34:14.761Z,54.16
2022-08-05T10:35:14.773Z,55.54
2022-08-05T10:36:14.810Z,58.23
2022-08-05T10:37:14.778Z,55.29
2022-08-05T10:38:14.749Z,56.34
2022-08-05T10:39:24.293Z,56.58
2022-08-05T10:40:17.904Z,54.84
2022-08-05T10:41:14.783Z,55.96
2022-08-05T10:42:18.613Z,55.60
2022-08-05T10:43:15.731Z,55.92
2022-08-05T10:44:14.729Z,55.11
2022-08-05T10:45:23.258Z,57.16
2022-08-05T10:46:15.698Z,56.52
2022-08-05T10:47:25.883Z,56.82
2022-08-05T10:48:31.743Z,57.05
2022-08-05T10:49:16.748Z,53.89
2022-08-05T10:50:33.286Z,53.67
2022-08-05T10:51:22.210Z,57.04
2022-08-05T10:52:14.675Z,58.35
2022-08-05T10:53:14.653Z,56.39
2022-08-05T10:54:28.300Z,56.09
2022-08-05T10:55:16.058Z,56.11
2022-08-05T10:56:25.237Z,55.76
2022-08-05T10:57:15.651Z,55.63
2022-08-05T10:58:15.723Z,55.13
2022-08-05T11:00:01.211Z,56.88
2022-08-05T11:00:20.478Z,56.89
2022-08-05T11:01:16.606Z,56.23
2022-08-05T11:02:34.967Z,57.05
2022-08-05T11:03:24.581Z,57.39
2022-08-05T11:04:16.581Z,54.91
2022-08-05T11:05:14.598Z,57.63
2022-08-05T11:06:17.851Z,57.83
2022-08-05T11:07:14.570Z,57.98
2022-08-05T11:08:36.811Z,56.52
2022-08-05T11:09:17.271Z,57.58
2022-08-05T11:10:14.542Z,56.56
2022-08-05T11:11:16.700Z,56.97
2022-08-05T11:12:15.578Z,57.23
2022-08-05T11:13:14.532Z,58.82
2022-08-05T11:14:14.542Z,57.05
2022-08-05T11:15:20.515Z,57.13
2022-08-05T11:16:15.501Z,56.29
2022-08-05T11:17:56.739Z,56.23
2022-08-05T11:18:16.738Z,56.30
2022-08-05T11:20:10.370Z,56.85
2022-08-05T11:20:18.177Z,56.77
2022-08-05T11:21:14.488Z,56.95
2022-08-05T11:22:14.467Z,56.13
2022-08-05T11:23:14.464Z,56.36
2022-08-05T11:24:29.624Z,55.77
2022-08-05T11:26:03.258Z,54.55
2022-08-05T11:26:15.447Z,56.58
2022-08-05T11:27:14.443Z,58.01
2022-08-05T11:28:17.108Z,56.25
2022-08-05T11:29:14.527Z,57.20
2022-08-05T11:30:14.447Z,56.23
2022-08-05T11:31:54.051Z,57.32
2022-08-05T11:32:15.423Z,56.48
2022-08-05T11:33:21.181Z,56.99
2022-08-05T11:34:17.214Z,56.76
2022-08-05T11:35:15.518Z,58.81
2022-08-05T11:36:14.404Z,55.86
2022-08-05T11:38:30.246Z,55.48
2022-08-05T11:38:30.911Z,55.98
2022-08-05T11:39:15.439Z,53.98
2022-08-05T11:40:14.375Z,54.87
2022-08-05T11:41:58.270Z,55.93
2022-08-05T11:42:18.277Z,56.26
2022-08-05T11:43:14.351Z,55.23
2022-08-05T11:44:40.817Z,55.44
2022-08-05T11:45:26.956Z,54.52
2022-08-05T11:46:32.158Z,54.82
2022-08-05T11:47:19.955Z,54.49
2022-08-05T11:48:14.327Z,55.06
2022-08-05T11:49:14.310Z,57.05
2022-08-05T11:50:14.634Z,56.60
2022-08-05T11:51:14.295Z,56.30
2022-08-05T11:52:15.311Z,55.07
2022-08-05T11:53:14.290Z,56.17
2022-08-05T11:54:14.286Z,55.38
2022-08-05T11:55:14.272Z,56.59
2022-08-05T11:56:14.266Z,55.45
2022-08-05T11:57:24.829Z,58.49
2022-08-05T11:58:17.325Z,55.81
2022-08-05T11:59:14.251Z,56.08
2022-08-05T12:00:14.245Z,55.24
2022-08-05T12:01:14.238Z,56.00
2022-08-05T12:02:24.306Z,56.43
2022-08-05T12:03:15.279Z,56.17
2022-08-05T12:04:14.246Z,55.09
2022-08-05T12:05:18.164Z,55.38
2022-08-05T12:06:14.202Z,55.81
2022-08-05T12:07:14.216Z,55.71
2022-08-05T12:08:18.171Z,56.44
2022-08-05T12:09:20.111Z,56.60
2022-08-05T12:10:15.181Z,55.83
2022-08-05T12:11:20.370Z,55.86
2022-08-05T12:12:14.175Z,56.72
2022-08-05T12:13:16.935Z,58.22
2022-08-05T12:14:14.147Z,57.23
2022-08-05T12:15:17.102Z,56.43
2022-08-05T12:16:15.626Z,57.11
2022-08-05T12:18:00.784Z,55.40
2022-08-05T12:18:15.313Z,56.10
2022-08-05T12:20:26.718Z,56.33
2022-08-05T12:20:27.151Z,56.46
2022-08-05T12:21:16.101Z,57.04
2022-08-05T12:22:14.108Z,55.68
2022-08-05T12:23:15.106Z,54.17
2022-08-05T12:24:14.078Z,56.38
2022-08-05T12:25:14.392Z,58.30
2022-08-05T12:26:14.074Z,57.45
2022-08-05T12:27:21.582Z,56.71
2022-08-05T12:28:16.067Z,58.15
2022-08-05T12:29:16.088Z,57.96
2022-08-05T12:30:15.394Z,57.10
2022-08-05T12:31:23.243Z,56.76
2022-08-05T12:32:15.039Z,57.76
2022-08-05T12:33:27.240Z,56.87
2022-08-05T12:34:21.178Z,56.88
2022-08-05T12:35:16.869Z,55.91
2022-08-05T12:36:14.999Z,58.77
2022-08-05T12:37:17.142Z,55.95
2022-08-05T12:38:13.990Z,56.38
2022-08-05T12:39:14.027Z,56.81
2022-08-05T12:40:26.533Z,56.43
2022-08-05T12:41:16.166Z,54.89
2022-08-05T12:42:14.503Z,57.37
2022-08-05T12:43:20.748Z,56.18
2022-08-05T12:44:21.745Z,56.83
2022-08-05T12:45:14.991Z,57.32
2022-08-05T12:46:13.930Z,57.08
2022-08-05T12:47:17.149Z,56.54
2022-08-05T12:48:27.173Z,55.99
2022-08-05T12:49:15.020Z,57.02
2022-08-05T12:50:13.908Z,56.53
2022-08-05T12:52:10.353Z,58.11
2022-08-05T12:52:23.888Z,58.02